Terminal Aerodrome Forecast
Issued by NWS Billings, MT

Home | Current Version | Previous Version | Text Only | Print | Product List | Glossary On
Versions: 1 2 3 4 5 6 7 8 9 10 11 12 13 14 15 16 17 18 19 20 21 22 23 24 25 26
000
FTUS45 KBYZ 242324
TAFBIL
TAF
KBIL 242324Z 2500/2524 30004KT P6SM VCSH FEW017 OVC035
     FM250600 30005KT P6SM VCSH SCT015 BKN025
     FM250900 28004KT 5SM BR VCSH OVC002
     FM251500 26005KT P6SM VCSH SCT015 OVC030
     FM251800 27010KT P6SM VCSH BKN040=

USA.gov is the U.S. government's official web portal to all federal, state and local government web resources and services.